sensor_id;sensor_type;location;lat;lon;timestamp;P1;durP1;ratioP1;P2;durP2;ratioP2
72569;SDS011;60594;50.204;8.844;2023-04-01T00:00:55;5.15;;;1.73;;
72569;SDS011;60594;50.204;8.844;2023-04-01T00:03:24;3.80;;;1.67;;
72569;SDS011;60594;50.204;8.844;2023-04-01T00:05:53;3.70;;;1.75;;
72569;SDS011;60594;50.204;8.844;2023-04-01T00:08:20;4.93;;;1.70;;
72569;SDS011;60594;50.204;8.844;2023-04-01T00:10:47;4.80;;;1.15;;
72569;SDS011;60594;50.204;8.844;2023-04-01T00:13:13;4.18;;;1.73;;
72569;SDS011;60594;50.204;8.844;2023-04-01T00:15:40;4.68;;;1.52;;
72569;SDS011;60594;50.204;8.844;2023-04-01T00:18:07;4.70;;;1.50;;
72569;SDS011;60594;50.204;8.844;2023-04-01T00:20:34;6.10;;;1.98;;
72569;SDS011;60594;50.204;8.844;2023-04-01T00:23:01;6.03;;;1.77;;
72569;SDS011;60594;50.204;8.844;2023-04-01T00:25:28;3.65;;;1.65;;
72569;SDS011;60594;50.204;8.844;2023-04-01T00:27:55;4.13;;;1.30;;
72569;SDS011;60594;50.204;8.844;2023-04-01T00:30:22;3.38;;;1.50;;
72569;SDS011;60594;50.204;8.844;2023-04-01T00:32:51;3.88;;;1.63;;
72569;SDS011;60594;50.204;8.844;2023-04-01T00:35:19;2.05;;;1.40;;
72569;SDS011;60594;50.204;8.844;2023-04-01T00:37:45;7.00;;;1.80;;
72569;SDS011;60594;50.204;8.844;2023-04-01T00:40:24;4.32;;;1.38;;
72569;SDS011;60594;50.204;8.844;2023-04-01T00:42:57;1.80;;;1.10;;
72569;SDS011;60594;50.204;8.844;2023-04-01T00:47:51;3.33;;;2.00;;
72569;SDS011;60594;50.204;8.844;2023-04-01T00:50:17;3.63;;;1.80;;
72569;SDS011;60594;50.204;8.844;2023-04-01T00:52:44;4.15;;;1.70;;
72569;SDS011;60594;50.204;8.844;2023-04-01T00:55:10;3.97;;;1.55;;
72569;SDS011;60594;50.204;8.844;2023-04-01T00:57:40;3.33;;;1.45;;
72569;SDS011;60594;50.204;8.844;2023-04-01T01:00:11;2.83;;;1.38;;
72569;SDS011;60594;50.204;8.844;2023-04-01T01:02:41;3.90;;;1.90;;
72569;SDS011;60594;50.204;8.844;2023-04-01T01:05:11;5.05;;;1.83;;
72569;SDS011;60594;50.204;8.844;2023-04-01T01:07:47;4.28;;;1.65;;
72569;SDS011;60594;50.204;8.844;2023-04-01T01:10:34;4.07;;;1.75;;
72569;SDS011;60594;50.204;8.844;2023-04-01T01:13:11;4.38;;;1.85;;
72569;SDS011;60594;50.204;8.844;2023-04-01T01:21:21;5.47;;;1.60;;
72569;SDS011;60594;50.204;8.844;2023-04-01T01:27:07;4.72;;;1.50;;
72569;SDS011;60594;50.204;8.844;2023-04-01T01:32:42;4.45;;;2.20;;
72569;SDS011;60594;50.204;8.844;2023-04-01T01:37:54;4.38;;;1.55;;
72569;SDS011;60594;50.204;8.844;2023-04-01T01:40:24;3.78;;;1.55;;
72569;SDS011;60594;50.204;8.844;2023-04-01T01:42:54;5.00;;;1.20;;
72569;SDS011;60594;50.204;8.844;2023-04-01T01:45:24;3.78;;;1.20;;
72569;SDS011;60594;50.204;8.844;2023-04-01T01:47:54;3.00;;;1.42;;
72569;SDS011;60594;50.204;8.844;2023-04-01T01:50:24;3.28;;;1.55;;
72569;SDS011;60594;50.204;8.844;2023-04-01T01:53:00;4.25;;;1.70;;
72569;SDS011;60594;50.204;8.844;2023-04-01T01:55:36;4.18;;;1.70;;
72569;SDS011;60594;50.204;8.844;2023-04-01T01:58:28;5.72;;;1.60;;
72569;SDS011;60594;50.204;8.844;2023-04-01T02:01:07;2.47;;;1.05;;
72569;SDS011;60594;50.204;8.844;2023-04-01T02:03:39;2.08;;;1.17;;
72569;SDS011;60594;50.204;8.844;2023-04-01T02:06:09;2.67;;;1.45;;
72569;SDS011;60594;50.204;8.844;2023-04-01T02:08:50;3.58;;;1.67;;
72569;SDS011;60594;50.204;8.844;2023-04-01T02:11:23;3.63;;;1.60;;
72569;SDS011;60594;50.204;8.844;2023-04-01T02:14:06;3.20;;;1.15;;
72569;SDS011;60594;50.204;8.844;2023-04-01T02:19:25;3.20;;;1.10;;
72569;SDS011;60594;50.204;8.844;2023-04-01T02:22:05;3.33;;;1.25;;
72569;SDS011;60594;50.204;8.844;2023-04-01T02:24:35;3.28;;;1.42;;
72569;SDS011;60594;50.204;8.844;2023-04-01T02:27:03;3.00;;;1.45;;
72569;SDS011;60594;50.204;8.844;2023-04-01T02:29:31;3.47;;;1.38;;
72569;SDS011;60594;50.204;8.844;2023-04-01T02:31:58;5.35;;;2.30;;
72569;SDS011;60594;50.204;8.844;2023-04-01T02:34:25;4.03;;;1.40;;
72569;SDS011;60594;50.204;8.844;2023-04-01T02:36:52;5.97;;;1.55;;
72569;SDS011;60594;50.204;8.844;2023-04-01T02:39:20;3.58;;;1.52;;
72569;SDS011;60594;50.204;8.844;2023-04-01T02:41:46;2.80;;;1.38;;
72569;SDS011;60594;50.204;8.844;2023-04-01T02:44:14;2.45;;;1.42;;
72569;SDS011;60594;50.204;8.844;2023-04-01T02:46:41;3.92;;;1.50;;
72569;SDS011;60594;50.204;8.844;2023-04-01T02:49:08;2.55;;;1.20;;
72569;SDS011;60594;50.204;8.844;2023-04-01T02:51:34;4.07;;;1.55;;
72569;SDS011;60594;50.204;8.844;2023-04-01T02:54:01;3.60;;;1.42;;
72569;SDS011;60594;50.204;8.844;2023-04-01T02:56:28;2.35;;;1.25;;
72569;SDS011;60594;50.204;8.844;2023-04-01T02:58:54;2.47;;;1.30;;
72569;SDS011;60594;50.204;8.844;2023-04-01T03:01:21;3.90;;;1.40;;
72569;SDS011;60594;50.204;8.844;2023-04-01T03:03:48;3.28;;;1.20;;
72569;SDS011;60594;50.204;8.844;2023-04-01T03:06:15;6.15;;;1.48;;
72569;SDS011;60594;50.204;8.844;2023-04-01T03:08:42;3.53;;;1.35;;
72569;SDS011;60594;50.204;8.844;2023-04-01T03:11:10;4.82;;;1.35;;
72569;SDS011;60594;50.204;8.844;2023-04-01T03:13:37;3.00;;;1.58;;
72569;SDS011;60594;50.204;8.844;2023-04-01T03:16:03;2.97;;;2.30;;
72569;SDS011;60594;50.204;8.844;2023-04-01T03:18:30;2.15;;;1.00;;
72569;SDS011;60594;50.204;8.844;2023-04-01T03:20:57;2.45;;;1.10;;
72569;SDS011;60594;50.204;8.844;2023-04-01T03:23:37;2.65;;;1.08;;
72569;SDS011;60594;50.204;8.844;2023-04-01T03:26:04;3.65;;;1.10;;
72569;SDS011;60594;50.204;8.844;2023-04-01T03:28:31;6.32;;;1.23;;
72569;SDS011;60594;50.204;8.844;2023-04-01T03:30:57;3.53;;;1.27;;
72569;SDS011;60594;50.204;8.844;2023-04-01T03:33:24;3.65;;;1.27;;
72569;SDS011;60594;50.204;8.844;2023-04-01T03:35:50;3.75;;;1.50;;
72569;SDS011;60594;50.204;8.844;2023-04-01T03:38:19;5.40;;;1.63;;
72569;SDS011;60594;50.204;8.844;2023-04-01T03:40:46;4.50;;;1.40;;
72569;SDS011;60594;50.204;8.844;2023-04-01T03:43:12;4.20;;;1.50;;
72569;SDS011;60594;50.204;8.844;2023-04-01T03:45:46;2.13;;;1.17;;
72569;SDS011;60594;50.204;8.844;2023-04-01T03:48:14;3.53;;;1.40;;
72569;SDS011;60594;50.204;8.844;2023-04-01T03:50:40;2.20;;;1.40;;
72569;SDS011;60594;50.204;8.844;2023-04-01T03:53:08;3.17;;;1.38;;
72569;SDS011;60594;50.204;8.844;2023-04-01T03:55:35;3.65;;;1.23;;
72569;SDS011;60594;50.204;8.844;2023-04-01T03:58:02;3.33;;;1.38;;
72569;SDS011;60594;50.204;8.844;2023-04-01T04:00:30;3.55;;;1.65;;
72569;SDS011;60594;50.204;8.844;2023-04-01T04:02:57;2.42;;;1.00;;
72569;SDS011;60594;50.204;8.844;2023-04-01T04:05:30;3.20;;;1.17;;
72569;SDS011;60594;50.204;8.844;2023-04-01T04:07:57;5.05;;;1.15;;
72569;SDS011;60594;50.204;8.844;2023-04-01T04:10:24;3.80;;;1.25;;
72569;SDS011;60594;50.204;8.844;2023-04-01T04:12:51;2.80;;;1.33;;
72569;SDS011;60594;50.204;8.844;2023-04-01T04:17:46;4.32;;;1.52;;
72569;SDS011;60594;50.204;8.844;2023-04-01T04:20:14;2.80;;;1.10;;
72569;SDS011;60594;50.204;8.844;2023-04-01T04:22:41;5.28;;;1.33;;
72569;SDS011;60594;50.204;8.844;2023-04-01T04:25:08;2.22;;;1.08;;
72569;SDS011;60594;50.204;8.844;2023-04-01T04:27:36;4.47;;;1.65;;
72569;SDS011;60594;50.204;8.844;2023-04-01T04:30:07;4.30;;;1.65;;
72569;SDS011;60594;50.204;8.844;2023-04-01T04:32:35;3.85;;;1.60;;
72569;SDS011;60594;50.204;8.844;2023-04-01T04:35:01;3.13;;;1.40;;
72569;SDS011;60594;50.204;8.844;2023-04-01T04:37:28;2.97;;;1.35;;
72569;SDS011;60594;50.204;8.844;2023-04-01T04:39:55;4.25;;;1.30;;
72569;SDS011;60594;50.204;8.844;2023-04-01T04:42:21;2.13;;;0.80;;
72569;SDS011;60594;50.204;8.844;2023-04-01T04:44:48;4.35;;;1.33;;
72569;SDS011;60594;50.204;8.844;2023-04-01T04:47:15;3.05;;;1.27;;
72569;SDS011;60594;50.204;8.844;2023-04-01T04:49:42;4.40;;;1.60;;
72569;SDS011;60594;50.204;8.844;2023-04-01T04:52:09;2.80;;;1.25;;
72569;SDS011;60594;50.204;8.844;2023-04-01T04:54:36;2.47;;;1.23;;
72569;SDS011;60594;50.204;8.844;2023-04-01T04:57:04;3.55;;;1.35;;
72569;SDS011;60594;50.204;8.844;2023-04-01T04:59:35;1.95;;;1.08;;
72569;SDS011;60594;50.204;8.844;2023-04-01T05:02:21;2.20;;;1.20;;
72569;SDS011;60594;50.204;8.844;2023-04-01T05:04:48;3.97;;;1.27;;
72569;SDS011;60594;50.204;8.844;2023-04-01T05:07:15;5.95;;;1.33;;
72569;SDS011;60594;50.204;8.844;2023-04-01T05:09:41;5.00;;;1.52;;
72569;SDS011;60594;50.204;8.844;2023-04-01T05:12:08;3.55;;;1.38;;
72569;SDS011;60594;50.204;8.844;2023-04-01T05:14:54;3.40;;;1.10;;
72569;SDS011;60594;50.204;8.844;2023-04-01T05:17:21;2.88;;;1.20;;
72569;SDS011;60594;50.204;8.844;2023-04-01T05:19:48;2.28;;;1.38;;
72569;SDS011;60594;50.204;8.844;2023-04-01T05:22:14;4.00;;;1.33;;
72569;SDS011;60594;50.204;8.844;2023-04-01T05:24:41;3.90;;;1.33;;
72569;SDS011;60594;50.204;8.844;2023-04-01T05:27:08;3.05;;;1.70;;
72569;SDS011;60594;50.204;8.844;2023-04-01T05:29:38;2.47;;;1.23;;
72569;SDS011;60594;50.204;8.844;2023-04-01T05:32:07;3.42;;;1.23;;
72569;SDS011;60594;50.204;8.844;2023-04-01T05:34:34;2.47;;;1.38;;
72569;SDS011;60594;50.204;8.844;2023-04-01T05:37:01;3.70;;;1.38;;
72569;SDS011;60594;50.204;8.844;2023-04-01T05:39:27;4.93;;;0.93;;
72569;SDS011;60594;50.204;8.844;2023-04-01T05:41:54;2.60;;;1.20;;
72569;SDS011;60594;50.204;8.844;2023-04-01T05:44:21;3.53;;;1.20;;
72569;SDS011;60594;50.204;8.844;2023-04-01T05:47:10;4.03;;;1.90;;
72569;SDS011;60594;50.204;8.844;2023-04-01T05:49:37;3.03;;;1.00;;
72569;SDS011;60594;50.204;8.844;2023-04-01T05:52:04;3.30;;;1.38;;
72569;SDS011;60594;50.204;8.844;2023-04-01T05:54:34;3.78;;;1.38;;
72569;SDS011;60594;50.204;8.844;2023-04-01T05:57:00;3.20;;;1.35;;
72569;SDS011;60594;50.204;8.844;2023-04-01T05:59:27;1.92;;;1.00;;
72569;SDS011;60594;50.204;8.844;2023-04-01T06:01:55;2.88;;;1.08;;
72569;SDS011;60594;50.204;8.844;2023-04-01T06:04:21;3.92;;;1.30;;
72569;SDS011;60594;50.204;8.844;2023-04-01T06:06:48;2.47;;;0.65;;
72569;SDS011;60594;50.204;8.844;2023-04-01T06:09:18;3.53;;;1.40;;
72569;SDS011;60594;50.204;8.844;2023-04-01T06:11:56;1.85;;;1.00;;
72569;SDS011;60594;50.204;8.844;2023-04-01T06:31:12;3.22;;;2.03;;
72569;SDS011;60594;50.204;8.844;2023-04-01T06:36:43;3.13;;;1.85;;
72569;SDS011;60594;50.204;8.844;2023-04-01T06:39:55;1.92;;;1.20;;
72569;SDS011;60594;50.204;8.844;2023-04-01T06:46:07;2.35;;;1.25;;
72569;SDS011;60594;50.204;8.844;2023-04-01T06:51:39;2.60;;;0.70;;
72569;SDS011;60594;50.204;8.844;2023-04-01T06:54:31;3.63;;;1.13;;
72569;SDS011;60594;50.204;8.844;2023-04-01T06:57:50;3.55;;;1.73;;
72569;SDS011;60594;50.204;8.844;2023-04-01T07:00:03;1.88;;;1.17;;
72569;SDS011;60594;50.204;8.844;2023-04-01T07:02:42;2.95;;;1.40;;
72569;SDS011;60594;50.204;8.844;2023-04-01T07:05:14;4.63;;;1.17;;
72569;SDS011;60594;50.204;8.844;2023-04-01T07:07:52;2.70;;;1.45;;
72569;SDS011;60594;50.204;8.844;2023-04-01T07:10:25;1.98;;;1.25;;
72569;SDS011;60594;50.204;8.844;2023-04-01T07:13:39;3.53;;;1.30;;
72569;SDS011;60594;50.204;8.844;2023-04-01T07:16:20;2.03;;;0.90;;
72569;SDS011;60594;50.204;8.844;2023-04-01T07:18:54;1.75;;;0.90;;
72569;SDS011;60594;50.204;8.844;2023-04-01T07:21:37;2.83;;;1.30;;
72569;SDS011;60594;50.204;8.844;2023-04-01T07:24:17;2.53;;;0.73;;
72569;SDS011;60594;50.204;8.844;2023-04-01T07:27:01;3.20;;;0.80;;
72569;SDS011;60594;50.204;8.844;2023-04-01T07:29:31;2.03;;;1.52;;
72569;SDS011;60594;50.204;8.844;2023-04-01T07:34:45;4.88;;;1.55;;
72569;SDS011;60594;50.204;8.844;2023-04-01T07:37:38;2.85;;;1.20;;
72569;SDS011;60594;50.204;8.844;2023-04-01T07:40:18;3.00;;;1.17;;
72569;SDS011;60594;50.204;8.844;2023-04-01T07:51:43;2.60;;;1.33;;
72569;SDS011;60594;50.204;8.844;2023-04-01T07:54:28;1.23;;;0.70;;
72569;SDS011;60594;50.204;8.844;2023-04-01T08:00:15;1.77;;;1.10;;
72569;SDS011;60594;50.204;8.844;2023-04-01T08:03:07;1.98;;;1.17;;
72569;SDS011;60594;50.204;8.844;2023-04-01T08:05:41;2.85;;;1.48;;
72569;SDS011;60594;50.204;8.844;2023-04-01T08:08:40;1.27;;;0.63;;
72569;SDS011;60594;50.204;8.844;2023-04-01T08:11:49;3.03;;;1.00;;
72569;SDS011;60594;50.204;8.844;2023-04-01T08:21:06;2.33;;;1.17;;
72569;SDS011;60594;50.204;8.844;2023-04-01T08:23:41;3.97;;;1.85;;
72569;SDS011;60594;50.204;8.844;2023-04-01T08:26:21;1.77;;;1.25;;
72569;SDS011;60594;50.204;8.844;2023-04-01T08:31:55;1.95;;;1.23;;
72569;SDS011;60594;50.204;8.844;2023-04-01T08:34:38;2.90;;;0.88;;
72569;SDS011;60594;50.204;8.844;2023-04-01T08:37:20;4.28;;;1.20;;
72569;SDS011;60594;50.204;8.844;2023-04-01T08:39:55;2.15;;;1.20;;
72569;SDS011;60594;50.204;8.844;2023-04-01T08:42:41;5.15;;;1.33;;
72569;SDS011;60594;50.204;8.844;2023-04-01T09:12:00;2.08;;;1.33;;
72569;SDS011;60594;50.204;8.844;2023-04-01T09:20:34;4.00;;;1.40;;
72569;SDS011;60594;50.204;8.844;2023-04-01T09:23:24;2.22;;;1.20;;
72569;SDS011;60594;50.204;8.844;2023-04-01T09:26:03;5.78;;;1.58;;
72569;SDS011;60594;50.204;8.844;2023-04-01T09:31:43;1.80;;;1.20;;
72569;SDS011;60594;50.204;8.844;2023-04-01T09:34:57;3.05;;;1.25;;
72569;SDS011;60594;50.204;8.844;2023-04-01T09:40:55;3.10;;;1.20;;
72569;SDS011;60594;50.204;8.844;2023-04-01T09:52:26;2.22;;;1.13;;
72569;SDS011;60594;50.204;8.844;2023-04-01T09:55:34;2.70;;;1.45;;
72569;SDS011;60594;50.204;8.844;2023-04-01T10:01:54;2.30;;;1.20;;
72569;SDS011;60594;50.204;8.844;2023-04-01T10:07:41;2.20;;;1.33;;
72569;SDS011;60594;50.204;8.844;2023-04-01T10:13:31;3.03;;;1.73;;
72569;SDS011;60594;50.204;8.844;2023-04-01T10:19:20;2.53;;;1.10;;
72569;SDS011;60594;50.204;8.844;2023-04-01T10:27:30;2.35;;;1.45;;
72569;SDS011;60594;50.204;8.844;2023-04-01T10:45:41;2.85;;;1.38;;
72569;SDS011;60594;50.204;8.844;2023-04-01T10:48:23;3.75;;;1.40;;
72569;SDS011;60594;50.204;8.844;2023-04-01T10:51:04;1.92;;;1.25;;
72569;SDS011;60594;50.204;8.844;2023-04-01T10:57:02;2.95;;;1.50;;
72569;SDS011;60594;50.204;8.844;2023-04-01T11:39:42;2.95;;;1.55;;
72569;SDS011;60594;50.204;8.844;2023-04-01T11:43:27;3.13;;;1.10;;
72569;SDS011;60594;50.204;8.844;2023-04-01T11:49:25;2.20;;;1.20;;
72569;SDS011;60594;50.204;8.844;2023-04-01T11:52:11;2.65;;;1.20;;
72569;SDS011;60594;50.204;8.844;2023-04-01T11:55:10;1.30;;;0.95;;
72569;SDS011;60594;50.204;8.844;2023-04-01T11:57:51;2.17;;;1.60;;
72569;SDS011;60594;50.204;8.844;2023-04-01T12:00:35;1.65;;;1.10;;
72569;SDS011;60594;50.204;8.844;2023-04-01T12:03:29;1.92;;;1.25;;
72569;SDS011;60594;50.204;8.844;2023-04-01T12:06:23;1.83;;;1.17;;
72569;SDS011;60594;50.204;8.844;2023-04-01T12:18:03;2.15;;;1.23;;
72569;SDS011;60594;50.204;8.844;2023-04-01T12:20:49;2.00;;;1.20;;
72569;SDS011;60594;50.204;8.844;2023-04-01T12:26:15;5.03;;;2.78;;
72569;SDS011;60594;50.204;8.844;2023-04-01T12:31:53;1.73;;;0.73;;
72569;SDS011;60594;50.204;8.844;2023-04-01T12:37:12;2.22;;;1.17;;
72569;SDS011;60594;50.204;8.844;2023-04-01T12:40:14;1.73;;;1.00;;
72569;SDS011;60594;50.204;8.844;2023-04-01T12:42:52;2.80;;;1.48;;
72569;SDS011;60594;50.204;8.844;2023-04-01T12:48:18;1.88;;;1.00;;
72569;SDS011;60594;50.204;8.844;2023-04-01T12:56:02;1.80;;;1.30;;
72569;SDS011;60594;50.204;8.844;2023-04-01T13:04:36;2.30;;;1.25;;
72569;SDS011;60594;50.204;8.844;2023-04-01T13:10:02;3.08;;;0.82;;
72569;SDS011;60594;50.204;8.844;2023-04-01T13:16:14;2.03;;;1.30;;
72569;SDS011;60594;50.204;8.844;2023-04-01T13:28:47;1.92;;;1.25;;
72569;SDS011;60594;50.204;8.844;2023-04-01T13:37:13;2.15;;;1.45;;
72569;SDS011;60594;50.204;8.844;2023-04-01T13:42:28;2.25;;;1.17;;
72569;SDS011;60594;50.204;8.844;2023-04-01T13:45:09;2.88;;;1.48;;
72569;SDS011;60594;50.204;8.844;2023-04-01T13:48:04;2.88;;;1.65;;
72569;SDS011;60594;50.204;8.844;2023-04-01T13:59:56;2.83;;;1.63;;
72569;SDS011;60594;50.204;8.844;2023-04-01T14:02:40;2.60;;;1.55;;
72569;SDS011;60594;50.204;8.844;2023-04-01T14:13:07;2.25;;;1.20;;
72569;SDS011;60594;50.204;8.844;2023-04-01T14:15:53;1.75;;;1.17;;
72569;SDS011;60594;50.204;8.844;2023-04-01T14:21:26;1.90;;;0.93;;
72569;SDS011;60594;50.204;8.844;2023-04-01T14:24:18;1.75;;;1.25;;
72569;SDS011;60594;50.204;8.844;2023-04-01T14:32:19;2.00;;;1.45;;
72569;SDS011;60594;50.204;8.844;2023-04-01T14:35:17;1.25;;;1.00;;
72569;SDS011;60594;50.204;8.844;2023-04-01T14:37:57;2.80;;;1.35;;
72569;SDS011;60594;50.204;8.844;2023-04-01T14:40:40;1.98;;;1.10;;
72569;SDS011;60594;50.204;8.844;2023-04-01T14:43:22;2.10;;;1.20;;
72569;SDS011;60594;50.204;8.844;2023-04-01T14:46:13;1.50;;;1.10;;
72569;SDS011;60594;50.204;8.844;2023-04-01T14:48:58;2.40;;;1.38;;
72569;SDS011;60594;50.204;8.844;2023-04-01T14:56:41;2.22;;;0.93;;
72569;SDS011;60594;50.204;8.844;2023-04-01T14:59:25;2.35;;;1.08;;
72569;SDS011;60594;50.204;8.844;2023-04-01T15:02:01;1.70;;;1.10;;
72569;SDS011;60594;50.204;8.844;2023-04-01T15:04:41;1.95;;;1.02;;
72569;SDS011;60594;50.204;8.844;2023-04-01T15:07:35;2.35;;;1.20;;
72569;SDS011;60594;50.204;8.844;2023-04-01T15:10:34;2.17;;;1.40;;
72569;SDS011;60594;50.204;8.844;2023-04-01T15:21:16;1.60;;;0.70;;
72569;SDS011;60594;50.204;8.844;2023-04-01T15:23:54;2.83;;;1.25;;
72569;SDS011;60594;50.204;8.844;2023-04-01T15:29:32;1.92;;;1.40;;
72569;SDS011;60594;50.204;8.844;2023-04-01T15:34:55;1.73;;;0.70;;
72569;SDS011;60594;50.204;8.844;2023-04-01T15:40:08;1.65;;;1.10;;
72569;SDS011;60594;50.204;8.844;2023-04-01T15:45:56;4.28;;;1.52;;
72569;SDS011;60594;50.204;8.844;2023-04-01T16:00:30;1.50;;;1.13;;
72569;SDS011;60594;50.204;8.844;2023-04-01T16:02:58;2.08;;;1.23;;
72569;SDS011;60594;50.204;8.844;2023-04-01T16:14:30;2.00;;;1.35;;
72569;SDS011;60594;50.204;8.844;2023-04-01T16:17:25;3.80;;;1.80;;
72569;SDS011;60594;50.204;8.844;2023-04-01T16:22:40;2.28;;;1.35;;
72569;SDS011;60594;50.204;8.844;2023-04-01T16:28:03;2.45;;;1.50;;
72569;SDS011;60594;50.204;8.844;2023-04-01T16:30:58;2.28;;;1.17;;
72569;SDS011;60594;50.204;8.844;2023-04-01T16:33:34;1.75;;;0.90;;
72569;SDS011;60594;50.204;8.844;2023-04-01T16:36:09;3.00;;;1.70;;
72569;SDS011;60594;50.204;8.844;2023-04-01T16:41:20;3.42;;;1.30;;
72569;SDS011;60594;50.204;8.844;2023-04-01T16:43:57;3.38;;;1.58;;
72569;SDS011;60594;50.204;8.844;2023-04-01T16:46:40;3.13;;;1.40;;
72569;SDS011;60594;50.204;8.844;2023-04-01T16:51:44;3.97;;;1.70;;
72569;SDS011;60594;50.204;8.844;2023-04-01T16:56:49;2.15;;;1.02;;
72569;SDS011;60594;50.204;8.844;2023-04-01T16:59:22;3.08;;;1.45;;
72569;SDS011;60594;50.204;8.844;2023-04-01T17:02:03;4.88;;;2.35;;
72569;SDS011;60594;50.204;8.844;2023-04-01T17:07:25;3.00;;;1.40;;
72569;SDS011;60594;50.204;8.844;2023-04-01T17:15:51;6.20;;;2.00;;
72569;SDS011;60594;50.204;8.844;2023-04-01T17:18:51;2.08;;;1.17;;
72569;SDS011;60594;50.204;8.844;2023-04-01T17:24:25;2.35;;;1.63;;
72569;SDS011;60594;50.204;8.844;2023-04-01T17:29:56;1.92;;;1.00;;
72569;SDS011;60594;50.204;8.844;2023-04-01T17:32:51;2.00;;;1.35;;
72569;SDS011;60594;50.204;8.844;2023-04-01T17:35:34;1.80;;;1.10;;
72569;SDS011;60594;50.204;8.844;2023-04-01T17:38:19;1.55;;;0.95;;
72569;SDS011;60594;50.204;8.844;2023-04-01T17:41:28;3.53;;;1.25;;
72569;SDS011;60594;50.204;8.844;2023-04-01T17:52:33;3.10;;;1.52;;
72569;SDS011;60594;50.204;8.844;2023-04-01T17:58:15;4.32;;;2.60;;
72569;SDS011;60594;50.204;8.844;2023-04-01T18:03:41;2.17;;;1.10;;
72569;SDS011;60594;50.204;8.844;2023-04-01T18:06:36;3.58;;;1.35;;
72569;SDS011;60594;50.204;8.844;2023-04-01T18:09:19;2.95;;;1.35;;
72569;SDS011;60594;50.204;8.844;2023-04-01T18:17:15;6.18;;;2.90;;
72569;SDS011;60594;50.204;8.844;2023-04-01T18:28:14;3.25;;;1.55;;
72569;SDS011;60594;50.204;8.844;2023-04-01T18:33:53;3.25;;;1.67;;
72569;SDS011;60594;50.204;8.844;2023-04-01T18:39:28;3.00;;;1.80;;
72569;SDS011;60594;50.204;8.844;2023-04-01T18:44:51;2.88;;;1.67;;
72569;SDS011;60594;50.204;8.844;2023-04-01T18:47:32;2.90;;;1.83;;
72569;SDS011;60594;50.204;8.844;2023-04-01T18:56:07;3.50;;;2.00;;
72569;SDS011;60594;50.204;8.844;2023-04-01T19:01:52;3.47;;;2.15;;
72569;SDS011;60594;50.204;8.844;2023-04-01T19:10:13;3.65;;;2.03;;
72569;SDS011;60594;50.204;8.844;2023-04-01T19:12:47;6.28;;;3.00;;
72569;SDS011;60594;50.204;8.844;2023-04-01T19:21:29;9.15;;;3.83;;
72569;SDS011;60594;50.204;8.844;2023-04-01T19:24:07;7.78;;;3.20;;
72569;SDS011;60594;50.204;8.844;2023-04-01T19:29:45;4.05;;;1.95;;
72569;SDS011;60594;50.204;8.844;2023-04-01T19:37:39;5.00;;;1.92;;
72569;SDS011;60594;50.204;8.844;2023-04-01T19:40:17;3.25;;;1.98;;
72569;SDS011;60594;50.204;8.844;2023-04-01T19:48:42;3.63;;;2.03;;
72569;SDS011;60594;50.204;8.844;2023-04-01T19:51:25;3.67;;;1.63;;
72569;SDS011;60594;50.204;8.844;2023-04-01T19:54:12;3.35;;;2.00;;
72569;SDS011;60594;50.204;8.844;2023-04-01T19:59:34;3.70;;;2.35;;
72569;SDS011;60594;50.204;8.844;2023-04-01T20:04:57;4.40;;;3.20;;
72569;SDS011;60594;50.204;8.844;2023-04-01T20:07:44;4.45;;;2.42;;
72569;SDS011;60594;50.204;8.844;2023-04-01T20:10:33;6.65;;;1.88;;
72569;SDS011;60594;50.204;8.844;2023-04-01T20:13:42;3.20;;;2.15;;
72569;SDS011;60594;50.204;8.844;2023-04-01T20:16:58;4.45;;;1.98;;
72569;SDS011;60594;50.204;8.844;2023-04-01T20:24:52;5.20;;;2.60;;
72569;SDS011;60594;50.204;8.844;2023-04-01T20:27:26;4.90;;;2.88;;
72569;SDS011;60594;50.204;8.844;2023-04-01T20:30:08;5.40;;;2.90;;
72569;SDS011;60594;50.204;8.844;2023-04-01T20:33:01;4.88;;;3.00;;
72569;SDS011;60594;50.204;8.844;2023-04-01T20:41:44;3.95;;;2.28;;
72569;SDS011;60594;50.204;8.844;2023-04-01T20:50:00;4.75;;;2.72;;
72569;SDS011;60594;50.204;8.844;2023-04-01T20:52:49;5.00;;;2.70;;
72569;SDS011;60594;50.204;8.844;2023-04-01T21:04:14;4.95;;;3.10;;
72569;SDS011;60594;50.204;8.844;2023-04-01T21:09:35;5.07;;;2.72;;
72569;SDS011;60594;50.204;8.844;2023-04-01T21:15:34;5.35;;;3.63;;
72569;SDS011;60594;50.204;8.844;2023-04-01T21:18:23;5.93;;;2.55;;
72569;SDS011;60594;50.204;8.844;2023-04-01T21:24:23;5.05;;;2.95;;
72569;SDS011;60594;50.204;8.844;2023-04-01T21:29:54;4.97;;;2.78;;
72569;SDS011;60594;50.204;8.844;2023-04-01T21:35:39;4.20;;;2.45;;
72569;SDS011;60594;50.204;8.844;2023-04-01T21:38:31;5.55;;;2.22;;
72569;SDS011;60594;50.204;8.844;2023-04-01T21:47:02;3.92;;;2.33;;
72569;SDS011;60594;50.204;8.844;2023-04-01T21:58:16;4.70;;;2.28;;
72569;SDS011;60594;50.204;8.844;2023-04-01T22:06:57;4.03;;;2.28;;
72569;SDS011;60594;50.204;8.844;2023-04-01T22:12:15;4.65;;;2.60;;
72569;SDS011;60594;50.204;8.844;2023-04-01T22:14:52;4.80;;;2.40;;
72569;SDS011;60594;50.204;8.844;2023-04-01T22:17:36;7.50;;;2.72;;
72569;SDS011;60594;50.204;8.844;2023-04-01T22:20:27;5.97;;;2.80;;
72569;SDS011;60594;50.204;8.844;2023-04-01T22:26:02;7.45;;;4.15;;
72569;SDS011;60594;50.204;8.844;2023-04-01T22:29:09;5.82;;;3.30;;
72569;SDS011;60594;50.204;8.844;2023-04-01T22:36:51;7.18;;;4.03;;
72569;SDS011;60594;50.204;8.844;2023-04-01T22:45:05;6.57;;;3.83;;
72569;SDS011;60594;50.204;8.844;2023-04-01T22:55:38;6.18;;;3.30;;
72569;SDS011;60594;50.204;8.844;2023-04-01T22:58:09;6.15;;;3.47;;
72569;SDS011;60594;50.204;8.844;2023-04-01T23:00:48;6.57;;;3.42;;
72569;SDS011;60594;50.204;8.844;2023-04-01T23:03:22;6.63;;;3.03;;
72569;SDS011;60594;50.204;8.844;2023-04-01T23:05:55;6.35;;;3.70;;
72569;SDS011;60594;50.204;8.844;2023-04-01T23:08:40;6.95;;;4.00;;
72569;SDS011;60594;50.204;8.844;2023-04-01T23:11:20;4.93;;;3.22;;
72569;SDS011;60594;50.204;8.844;2023-04-01T23:19:56;9.30;;;4.32;;
72569;SDS011;60594;50.204;8.844;2023-04-01T23:38:38;3.75;;;2.28;;
72569;SDS011;60594;50.204;8.844;2023-04-01T23:41:09;3.88;;;1.90;;
72569;SDS011;60594;50.204;8.844;2023-04-01T23:43:45;4.75;;;2.22;;
72569;SDS011;60594;50.204;8.844;2023-04-01T23:46:12;5.25;;;2.50;;
72569;SDS011;60594;50.204;8.844;2023-04-01T23:48:40;4.57;;;2.00;;
72569;SDS011;60594;50.204;8.844;2023-04-01T23:51:14;4.40;;;2.40;;
72569;SDS011;60594;50.204;8.844;2023-04-01T23:53:46;5.07;;;2.55;;
72569;SDS011;60594;50.204;8.844;2023-04-01T23:56:17;4.95;;;2.10;;
72569;SDS011;60594;50.204;8.844;2023-04-01T23:58:45;4.05;;;2.67;;
